Time;durP1;ratioP1;P1;durP2;ratioP2;P2;SDS_P1;SDS_P2;PMS_P1;PMS_P2;Temp;Humidity;BMP_temperature;BMP_pressure;BME280_temperature;BME280_humidity;BME280_pressure;Samples;Min_cycle;Max_cycle;Signal;HPM_P1;HPM_P2
2023/11/16 00:02:14;;;;;;;0.10;0.10;;;;;;;12.22;65.39;101616.69;5078595;28;20036;-83
2023/11/16 00:04:40;;;;;;;0.20;0.20;;;;;;;12.21;65.14;101624.69;5069430;28;20033;-83
2023/11/16 00:07:07;;;;;;;0.15;0.15;;;;;;;12.20;64.84;101618.50;5071739;28;20028;-83
2023/11/16 00:09:33;;;;;;;0.10;0.10;;;;;;;12.14;65.24;101621.25;5081986;28;20036;-84
2023/11/16 00:12:02;;;;;;;0.20;0.20;;;;;;;12.27;65.43;101620.19;5068076;28;20492;-84
2023/11/16 00:14:28;;;;;;;0.30;0.30;;;;;;;12.33;65.36;101629.84;5071648;28;20040;-84
2023/11/16 00:16:55;;;;;;;0.20;0.20;;;;;;;12.29;65.39;101629.00;5070157;28;20626;-81
2023/11/16 00:19:23;;;;;;;0.13;0.13;;;;;;;12.26;65.55;101622.84;5069301;28;20028;-80
2023/11/16 00:21:50;;;;;;;0.10;0.10;;;;;;;12.23;65.82;101631.75;5065334;28;20029;-80
2023/11/16 00:24:17;;;;;;;0.20;0.20;;;;;;;12.20;65.95;101634.47;5064506;28;20035;-81
2023/11/16 00:26:44;;;;;;;0.10;0.10;;;;;;;12.20;65.67;101634.47;5067168;28;20025;-80
2023/11/16 00:29:11;;;;;;;0.10;0.10;;;;;;;12.10;66.18;101640.78;5065837;28;20426;-80
2023/11/16 00:31:37;;;;;;;0.10;0.10;;;;;;;12.15;66.78;101633.66;5064980;28;20096;-80
2023/11/16 00:34:05;;;;;;;0.20;0.20;;;;;;;12.18;66.40;101632.72;5063736;28;20017;-81
2023/11/16 00:36:31;;;;;;;0.10;0.10;;;;;;;12.13;66.59;101623.03;5062656;28;20028;-80
2023/11/16 00:38:58;;;;;;;0.65;0.65;;;;;;;12.17;66.95;101623.00;5070078;28;20031;-81
2023/11/16 00:41:25;;;;;;;0.10;0.10;;;;;;;12.19;66.63;101623.88;5060351;28;20029;-82
2023/11/16 00:43:51;;;;;;;0.10;0.10;;;;;;;12.13;66.09;101635.44;5068300;28;20043;-81
2023/11/16 00:46:17;;;;;;;1.20;1.20;;;;;;;12.17;66.54;101623.00;5071890;28;20025;-82
2023/11/16 00:48:43;;;;;;;0.38;0.38;;;;;;;12.23;66.44;101623.78;5070593;28;20099;-80
2023/11/16 00:51:11;;;;;;;0.20;0.20;;;;;;;12.15;67.32;101646.94;5069691;28;20487;-81
2023/11/16 00:53:42;;;;;;;0.10;0.10;;;;;;;12.16;67.96;101643.34;5071030;28;20028;-80
2023/11/16 00:56:09;;;;;;;0.20;0.20;;;;;;;12.15;67.44;101641.63;5067733;28;20119;-80
2023/11/16 00:58:39;;;;;;;0.10;0.10;;;;;;;12.10;67.84;101646.97;5062828;28;20021;-81
2023/11/16 01:01:06;;;;;;;0.20;0.20;;;;;;;12.01;68.32;101655.06;5069417;28;20029;-80
2023/11/16 01:03:33;;;;;;;0.20;0.20;;;;;;;12.01;68.29;101648.88;5069555;28;20047;-80
2023/11/16 01:05:59;;;;;;;0.10;0.10;;;;;;;11.93;68.98;101649.81;5065510;28;20029;-80
2023/11/16 01:08:29;;;;;;;0.10;0.10;;;;;;;11.97;68.30;101653.34;5069889;28;20178;-79
2023/11/16 01:10:57;;;;;;;0.10;0.10;;;;;;;11.84;69.91;101652.59;5071355;28;20047;-79
2023/11/16 01:13:24;;;;;;;0.20;0.20;;;;;;;11.83;70.60;101661.47;5062944;28;20025;-81
2023/11/16 01:15:51;;;;;;;0.10;0.10;;;;;;;11.83;71.04;101661.47;5071921;28;20028;-81
2023/11/16 01:18:17;;;;;;;0.10;0.10;;;;;;;11.85;70.51;101658.78;5071851;28;20032;-81
2023/11/16 01:20:44;;;;;;;0.20;0.20;;;;;;;11.84;70.79;101652.59;5071780;28;20048;-80
2023/11/16 01:23:12;;;;;;;0.20;0.20;;;;;;;11.78;71.41;101647.38;5071567;28;20115;-82
2023/11/16 01:25:41;;;;;;;0.20;0.20;;;;;;;11.81;70.78;101642.00;5073725;28;20036;-81
2023/11/16 01:28:10;;;;;;;0.15;0.15;;;;;;;11.80;71.51;101653.50;5076329;28;20024;-83
2023/11/16 01:30:37;;;;;;;0.13;0.13;;;;;;;11.76;71.64;101655.34;5074571;28;20048;-80
2023/11/16 01:33:07;;;;;;;0.10;0.10;;;;;;;11.80;71.51;101656.16;5067207;28;20032;-81
2023/11/16 01:35:36;;;;;;;1.13;1.10;;;;;;;11.80;71.24;101661.47;5074214;28;20381;-81
2023/11/16 01:38:05;;;;;;;0.10;0.10;;;;;;;11.85;70.90;101662.34;5068495;28;20024;-80
2023/11/16 01:40:32;;;;;;;0.20;0.20;;;;;;;11.75;72.39;101664.22;5074519;28;20052;-81
2023/11/16 01:42:58;;;;;;;0.20;0.20;;;;;;;11.78;71.81;101658.00;5076308;28;20044;-80
2023/11/16 01:48:06;;;;;;;0.10;0.10;;;;;;;11.83;71.54;101669.44;5116294;27;1172405;-83
2023/11/16 01:50:35;;;;;;;0.20;0.20;;;;;;;11.77;72.48;101666.84;5132952;28;20830;-82
2023/11/16 01:53:09;;;;;;;0.20;0.20;;;;;;;11.83;71.58;101669.44;5123394;28;20032;-83
2023/11/16 01:55:38;;;;;;;0.20;0.20;;;;;;;11.80;72.28;101666.78;5117642;28;20027;-81
2023/11/16 01:58:05;;;;;;;0.20;0.20;;;;;;;11.81;71.82;101668.56;5117699;28;20023;-82
2023/11/16 02:00:33;;;;;;;0.10;0.10;;;;;;;11.80;72.01;101661.47;5112995;28;20271;-83
2023/11/16 02:03:03;;;;;;;0.17;0.17;;;;;;;11.79;71.53;101657.97;5110509;28;20486;-85
2023/11/16 02:05:32;;;;;;;0.10;0.10;;;;;;;11.81;71.32;101668.56;5113126;28;20474;-82
2023/11/16 02:07:59;;;;;;;0.47;0.47;;;;;;;11.83;70.71;101661.47;5116964;28;20033;-82
2023/11/16 02:10:25;;;;;;;0.20;0.20;;;;;;;11.81;71.10;101672.09;5107898;28;20035;-82
2023/11/16 02:12:53;;;;;;;0.20;0.20;;;;;;;11.80;71.51;101667.69;5110482;28;20028;-83
2023/11/16 02:15:19;;;;;;;0.10;0.10;;;;;;;11.76;72.44;101670.38;5113543;28;20034;-82
2023/11/16 02:17:45;;;;;;;0.10;0.10;;;;;;;11.75;72.25;101663.31;5113324;28;20026;-83
2023/11/16 02:20:12;;;;;;;0.10;0.10;;;;;;;11.78;72.02;101664.16;5110964;28;20487;-82
2023/11/16 02:22:40;;;;;;;0.15;0.15;;;;;;;11.82;72.01;101670.31;5107485;28;20044;-81
2023/11/16 02:25:08;;;;;;;0.10;0.10;;;;;;;11.82;71.63;101667.66;5110391;28;20089;-82
2023/11/16 02:27:35;;;;;;;0.10;0.10;;;;;;;11.82;72.46;101671.22;5105108;28;20073;-82
2023/11/16 02:30:01;;;;;;;0.17;0.17;;;;;;;11.86;71.65;101672.03;5107525;28;20048;-82
2023/11/16 02:32:27;;;;;;;0.20;0.20;;;;;;;11.88;72.00;101664.06;5110430;28;20016;-82
2023/11/16 02:34:53;;;;;;;0.88;0.82;;;;;;;11.90;71.78;101657.84;5110295;28;20043;-82
2023/11/16 02:37:20;;;;;;;0.10;0.10;;;;;;;11.91;71.75;101643.66;5108406;28;20020;-81
2023/11/16 02:39:46;;;;;;;0.10;0.10;;;;;;;11.88;71.94;101638.38;5108530;28;20056;-82
2023/11/16 02:42:13;;;;;;;0.10;0.10;;;;;;;11.89;72.03;101649.91;5106869;28;20088;-83
2023/11/16 02:44:41;;;;;;;0.10;0.10;;;;;;;11.90;71.62;101644.56;5109996;28;20028;-81
2023/11/16 02:47:08;;;;;;;0.10;0.10;;;;;;;11.91;71.90;101648.97;5112178;28;20032;-83
2023/11/16 02:49:34;;;;;;;0.10;0.10;;;;;;;11.92;71.92;101639.22;5107269;28;20401;-83
2023/11/16 02:52:00;;;;;;;0.17;0.17;;;;;;;11.91;71.71;101638.34;5114451;28;20040;-84
2023/11/16 02:54:27;;;;;;;0.10;0.10;;;;;;;11.91;72.27;101633.03;5107753;28;20429;-83
2023/11/16 02:56:53;;;;;;;0.10;0.10;;;;;;;11.90;71.88;101631.28;5105423;28;20024;-84
2023/11/16 02:59:20;;;;;;;0.10;0.10;;;;;;;11.88;72.34;101634.84;5100705;28;20024;-83
2023/11/16 03:01:46;;;;;;;0.10;0.10;;;;;;;11.85;72.52;101622.50;5097679;28;20050;-82
2023/11/16 03:04:12;;;;;;;0.20;0.20;;;;;;;11.86;72.11;101628.69;5088086;28;20036;-84
2023/11/16 03:06:38;;;;;;;0.10;0.10;;;;;;;11.85;71.94;101626.91;5090855;28;20021;-83
2023/11/16 03:09:05;;;;;;;0.10;0.10;;;;;;;11.82;72.00;101638.47;5094420;28;20442;-83
2023/11/16 03:11:32;;;;;;;0.20;0.20;;;;;;;11.82;71.41;101644.66;5095572;28;20278;-84
2023/11/16 03:13:59;;;;;;;0.10;0.10;;;;;;;11.81;72.27;101644.66;5096171;28;20122;-83
2023/11/16 03:16:26;;;;;;;0.15;0.15;;;;;;;11.82;71.64;101643.75;5094218;28;20035;-82
2023/11/16 03:18:52;;;;;;;0.17;0.17;;;;;;;11.81;72.09;101652.63;5101529;28;20036;-83
2023/11/16 03:21:18;;;;;;;0.10;0.10;;;;;;;11.81;71.91;101644.66;5101742;28;20028;-84
2023/11/16 03:23:45;;;;;;;0.10;0.10;;;;;;;11.80;72.07;101634.94;5107348;28;20048;-85
2023/11/16 03:26:11;;;;;;;0.20;0.20;;;;;;;11.76;72.34;101634.13;5103490;28;20059;-84
2023/11/16 03:28:37;;;;;;;0.10;0.10;;;;;;;11.82;72.42;101633.16;5107746;28;20155;-83
2023/11/16 03:31:05;;;;;;;0.10;0.10;;;;;;;11.82;72.25;101625.19;5107752;28;20021;-82
2023/11/16 03:33:32;;;;;;;0.20;0.20;;;;;;;11.84;72.17;101626.06;5108528;28;21236;-84
2023/11/16 03:35:58;;;;;;;0.13;0.13;;;;;;;11.86;72.06;101629.53;5111328;28;20063;-85
2023/11/16 03:38:24;;;;;;;0.10;0.10;;;;;;;11.87;72.09;101626.00;5109604;28;20039;-84
2023/11/16 03:40:51;;;;;;;0.10;0.10;;;;;;;11.88;72.30;101626.91;5107036;28;20095;-84
2023/11/16 03:43:18;;;;;;;0.10;0.10;;;;;;;11.88;72.54;101626.91;5108607;28;20043;-85
2023/11/16 03:45:44;;;;;;;0.10;0.10;;;;;;;11.87;72.19;101625.13;5104644;28;20094;-83
2023/11/16 03:48:11;;;;;;;0.10;0.10;;;;;;;11.85;72.14;101622.50;5105275;28;20028;-83
2023/11/16 03:50:39;;;;;;;0.17;0.17;;;;;;;11.86;72.33;101616.25;5109082;28;20031;-85
2023/11/16 03:53:06;;;;;;;0.20;0.20;;;;;;;11.84;72.53;101610.13;5098648;28;20096;-84
2023/11/16 03:55:32;;;;;;;0.10;0.10;;;;;;;11.84;71.97;101615.44;5093395;28;20025;-83
2023/11/16 03:57:58;;;;;;;0.10;0.10;;;;;;;11.82;72.35;101612.81;5095147;28;20052;-82
2023/11/16 04:00:25;;;;;;;0.20;0.20;;;;;;;11.84;72.13;101610.13;5099305;28;20024;-83
2023/11/16 04:02:54;;;;;;;0.20;0.20;;;;;;;11.82;72.34;101604.84;5096902;28;20024;-85
2023/11/16 04:05:20;;;;;;;0.10;0.10;;;;;;;11.81;72.26;101608.38;5099883;28;20020;-82
2023/11/16 04:07:47;;;;;;;0.10;0.10;;;;;;;11.80;72.32;101609.28;5101894;28;20505;-83
2023/11/16 04:10:13;;;;;;;0.20;0.20;;;;;;;11.79;72.63;101606.66;5092711;28;20026;-80
2023/11/16 04:12:41;;;;;;;0.10;0.10;;;;;;;11.76;71.99;101607.56;5098559;28;20126;-84
2023/11/16 04:15:10;;;;;;;0.20;0.20;;;;;;;11.75;72.60;101610.22;5093790;28;20047;-84
2023/11/16 04:17:37;;;;;;;0.20;0.20;;;;;;;11.73;72.10;101617.34;5098405;28;20395;-83
2023/11/16 04:20:07;;;;;;;0.10;0.10;;;;;;;11.71;72.70;101613.81;5092648;28;20107;-83
2023/11/16 04:22:38;;;;;;;0.20;0.20;;;;;;;11.72;72.25;101604.97;5094541;28;20024;-83
2023/11/16 04:25:08;;;;;;;0.20;0.20;;;;;;;11.73;72.40;101601.41;5099645;28;20026;-83
2023/11/16 04:27:34;;;;;;;0.20;0.20;;;;;;;11.71;73.05;101603.19;5095462;28;20103;-83
2023/11/16 04:30:01;;;;;;;0.10;0.10;;;;;;;11.70;72.54;101605.00;5091461;28;20119;-83
2023/11/16 04:32:27;;;;;;;0.20;0.20;;;;;;;11.72;72.66;101604.97;5094877;28;20064;-82
2023/11/16 04:34:54;;;;;;;0.10;0.10;;;;;;;11.72;72.67;101602.31;5097860;28;20483;-83
2023/11/16 04:37:22;;;;;;;0.10;0.10;;;;;;;11.72;72.93;101594.34;5105255;28;20008;-82
2023/11/16 04:39:48;;;;;;;0.10;0.10;;;;;;;11.73;72.60;101585.50;5103934;28;20016;-82
2023/11/16 04:42:14;;;;;;;1.75;1.65;;;;;;;11.70;72.50;101590.81;5100870;28;20491;-83
2023/11/16 04:44:41;;;;;;;0.20;0.20;;;;;;;11.67;72.73;101605.00;5085259;28;20032;-82
2023/11/16 04:47:07;;;;;;;0.10;0.10;;;;;;;11.68;72.79;101609.44;5096600;28;20624;-81
2023/11/16 04:49:33;;;;;;;0.20;0.20;;;;;;;11.68;72.71;101605.91;5096948;28;20479;-82
2023/11/16 04:51:59;;;;;;;0.20;0.20;;;;;;;11.70;72.50;101601.44;5096363;28;20090;-81
2023/11/16 04:54:26;;;;;;;0.10;0.10;;;;;;;11.70;72.70;101610.31;5097483;28;20032;-83
2023/11/16 04:56:52;;;;;;;0.10;0.10;;;;;;;11.71;72.83;101605.84;5091082;28;20014;-81
2023/11/16 04:59:18;;;;;;;0.10;0.10;;;;;;;11.71;72.90;101592.59;5094884;28;20032;-83
2023/11/16 05:01:44;;;;;;;0.15;0.15;;;;;;;11.72;72.69;101597.00;5096879;28;20024;-82
2023/11/16 05:04:10;;;;;;;0.20;0.20;;;;;;;11.72;73.00;101597.88;5095187;28;20029;-81
2023/11/16 05:06:40;;;;;;;0.10;0.10;;;;;;;11.73;73.29;101598.75;5097478;28;20466;-82
2023/11/16 05:09:07;;;;;;;0.20;0.20;;;;;;;11.69;73.17;101602.34;5099572;28;20095;-80
2023/11/16 05:11:33;;;;;;;0.20;0.20;;;;;;;11.61;73.53;101598.03;5094357;28;20092;-80
2023/11/16 05:13:59;;;;;;;0.10;0.10;;;;;;;11.60;72.85;101600.66;5092685;28;20028;-82
2023/11/16 05:16:26;;;;;;;0.10;0.10;;;;;;;11.62;73.45;101604.19;5094994;28;20246;-82
2023/11/16 05:18:53;;;;;;;0.10;0.10;;;;;;;11.62;73.25;101598.88;5090453;28;20055;-82
2023/11/16 05:21:19;;;;;;;0.10;0.10;;;;;;;11.64;73.09;101600.63;5093454;28;20444;-81
2023/11/16 05:23:46;;;;;;;0.20;0.20;;;;;;;11.64;72.60;101603.28;5095795;28;20483;-80
2023/11/16 05:26:12;;;;;;;0.10;0.10;;;;;;;11.67;72.83;101598.84;5094417;28;20161;-81
2023/11/16 05:28:38;;;;;;;0.10;0.10;;;;;;;11.66;72.74;101595.28;5104337;28;20032;-81
2023/11/16 05:31:04;;;;;;;0.20;0.20;;;;;;;11.68;72.97;101597.94;5095623;28;20102;-81
2023/11/16 05:33:32;;;;;;;0.10;0.10;;;;;;;11.70;73.49;101596.13;5096115;28;20456;-79
2023/11/16 05:35:59;;;;;;;0.35;0.35;;;;;;;11.68;73.41;101584.66;5095413;28;20032;-80
2023/11/16 05:38:25;;;;;;;0.10;0.10;;;;;;;11.68;73.01;101580.22;5096074;28;20036;-81
2023/11/16 05:40:53;;;;;;;0.20;0.20;;;;;;;11.66;72.76;101582.00;5087357;28;20058;-84
2023/11/16 05:43:20;;;;;;;0.17;0.17;;;;;;;11.67;73.03;101585.56;5097840;28;20032;-83
2023/11/16 05:45:47;;;;;;;0.10;0.10;;;;;;;11.70;72.91;101588.16;5100531;28;20024;-83
2023/11/16 05:48:14;;;;;;;0.10;0.10;;;;;;;11.70;72.74;101591.72;5091225;28;20039;-82
2023/11/16 05:50:40;;;;;;;0.15;0.15;;;;;;;11.73;73.24;101596.09;5088821;28;20034;-82
2023/11/16 05:53:08;;;;;;;0.20;0.20;;;;;;;11.72;72.96;101589.03;5092629;28;20029;-82
2023/11/16 05:55:34;;;;;;;0.10;0.10;;;;;;;11.73;72.95;101581.03;5088282;28;20038;-82
2023/11/16 05:58:01;;;;;;;0.10;0.10;;;;;;;11.75;73.46;101573.06;5102861;28;20035;-78
2023/11/16 06:00:27;;;;;;;0.10;0.10;;;;;;;11.75;73.12;101579.25;5108779;28;20036;-78
2023/11/16 06:02:53;;;;;;;0.10;0.10;;;;;;;11.75;72.92;101570.41;5105083;28;20028;-80
2023/11/16 06:05:19;;;;;;;0.20;0.20;;;;;;;11.76;73.41;101566.84;5102615;28;20024;-82
2023/11/16 06:07:45;;;;;;;0.10;0.10;;;;;;;11.73;73.55;101565.13;5100764;28;20016;-81
2023/11/16 06:10:16;;;;;;;0.10;0.10;;;;;;;11.74;73.21;101558.00;5099825;28;20017;-82
2023/11/16 06:12:46;;;;;;;0.10;0.10;;;;;;;11.73;73.56;101556.28;5097949;28;20118;-80
2023/11/16 06:15:14;;;;;;;0.10;0.10;;;;;;;11.72;73.06;101557.19;5094685;28;20036;-82
2023/11/16 06:17:41;;;;;;;0.17;0.17;;;;;;;11.73;73.60;101553.63;5098595;28;20047;-81
2023/11/16 06:20:10;;;;;;;1.45;0.90;;;;;;;11.74;73.36;101550.94;5097412;28;20032;-82
2023/11/16 06:22:37;;;;;;;0.10;0.10;;;;;;;11.75;73.51;101550.06;5093145;28;20032;-80
2023/11/16 06:25:04;;;;;;;0.20;0.20;;;;;;;11.75;73.53;101552.72;5091507;28;20035;-83
2023/11/16 06:27:32;;;;;;;0.10;0.10;;;;;;;11.75;73.16;101547.41;5089413;28;20490;-81
2023/11/16 06:29:58;;;;;;;0.10;0.10;;;;;;;11.76;73.72;101537.66;5089626;28;20028;-83
2023/11/16 06:32:24;;;;;;;0.10;0.10;;;;;;;11.75;73.67;101531.47;5088625;28;20036;-82
2023/11/16 06:34:50;;;;;;;0.20;0.20;;;;;;;11.73;73.16;101527.94;5098206;28;20079;-84
2023/11/16 06:37:16;;;;;;;0.20;0.20;;;;;;;11.74;73.54;101528.81;5095424;28;20035;-83
2023/11/16 06:39:42;;;;;;;0.13;0.13;;;;;;;11.72;73.75;101528.84;5095473;28;20132;-80
2023/11/16 06:42:08;;;;;;;0.17;0.17;;;;;;;11.73;73.65;101522.63;5093471;28;20449;-82
2023/11/16 06:44:34;;;;;;;0.15;0.15;;;;;;;11.74;73.42;101523.50;5090169;28;20031;-83
2023/11/16 06:47:02;;;;;;;0.10;0.10;;;;;;;11.75;72.99;101523.50;5091773;28;20057;-81
2023/11/16 06:49:28;;;;;;;0.10;0.10;;;;;;;11.75;73.04;101522.59;5096598;28;20052;-82
2023/11/16 06:51:55;;;;;;;0.20;0.20;;;;;;;11.76;73.48;101524.38;5093935;28;20699;-82
2023/11/16 06:54:21;;;;;;;0.10;0.10;;;;;;;11.72;73.09;101520.88;5091492;28;20032;-82
2023/11/16 06:56:49;;;;;;;0.20;0.20;;;;;;;11.73;73.57;101519.13;5095169;28;20491;-81
2023/11/16 06:59:19;;;;;;;0.20;0.20;;;;;;;11.73;73.16;101516.47;5092016;28;20030;-82
2023/11/16 07:01:47;;;;;;;0.90;0.73;;;;;;;11.72;73.47;101520.00;5097645;28;20032;-81
2023/11/16 07:04:15;;;;;;;0.17;0.17;;;;;;;11.73;73.09;101521.78;5093124;28;20123;-84
2023/11/16 07:06:42;;;;;;;0.20;0.20;;;;;;;11.73;73.06;101516.47;5095106;28;20029;-81
2023/11/16 07:09:11;;;;;;;0.10;0.10;;;;;;;11.70;73.44;101511.19;5095534;28;20028;-83
2023/11/16 07:11:38;;;;;;;0.10;0.10;;;;;;;11.71;73.82;101507.63;5099364;28;20032;-83
2023/11/16 07:14:06;;;;;;;0.20;0.20;;;;;;;11.70;73.75;101505.88;5107456;28;20032;-84
2023/11/16 07:16:33;;;;;;;0.20;0.20;;;;;;;11.70;73.60;101505.88;5096837;28;20091;-85
2023/11/16 07:18:59;;;;;;;0.10;0.10;;;;;;;11.70;73.73;101511.19;5099017;28;20034;-84
2023/11/16 07:21:26;;;;;;;0.20;0.20;;;;;;;11.69;73.91;101514.72;5106553;28;20027;-82
2023/11/16 07:23:53;;;;;;;0.10;0.10;;;;;;;11.69;73.71;101498.81;5105190;28;20016;-85
2023/11/16 07:26:20;;;;;;;0.13;0.13;;;;;;;11.66;73.61;101505.03;5102646;28;20562;-84
2023/11/16 07:28:47;;;;;;;0.13;0.13;;;;;;;11.68;73.45;101491.75;5096280;28;20020;-84
2023/11/16 07:31:19;;;;;;;0.30;0.30;;;;;;;11.69;73.26;101486.44;5092011;28;20088;-81
2023/11/16 07:33:51;;;;;;;0.20;0.20;;;;;;;11.73;73.44;101489.91;5095526;28;20020;-82
2023/11/16 07:36:24;;;;;;;0.63;0.63;;;;;;;11.75;73.64;101483.69;5089807;28;20510;-80
2023/11/16 07:38:52;;;;;;;0.22;0.22;;;;;;;11.76;73.68;101495.16;5095673;28;20024;-82
2023/11/16 07:41:18;;;;;;;0.20;0.20;;;;;;;11.78;73.25;101504.00;5095030;28;20012;-82
2023/11/16 07:43:45;;;;;;;0.40;0.40;;;;;;;11.78;73.74;101501.34;5084006;28;20020;-83
2023/11/16 07:46:12;;;;;;;0.45;0.45;;;;;;;11.79;73.69;101493.34;5092487;28;20403;-81
2023/11/16 07:48:39;;;;;;;0.20;0.20;;;;;;;11.80;73.78;101494.22;5095068;28;20115;-83
2023/11/16 07:51:07;;;;;;;0.10;0.10;;;;;;;11.84;73.73;101501.25;5088300;28;20112;-81
2023/11/16 07:53:33;;;;;;;0.38;0.38;;;;;;;11.84;73.44;101503.00;5085832;28;20024;-83
2023/11/16 07:56:05;;;;;;;0.10;0.10;;;;;;;11.85;73.65;101487.09;5092854;28;20031;-83
2023/11/16 07:58:34;;;;;;;0.20;0.20;;;;;;;11.86;73.37;101486.16;5101897;28;20011;-81
2023/11/16 08:01:04;;;;;;;0.20;0.20;;;;;;;11.85;73.64;101476.47;5101765;28;20505;-82
2023/11/16 08:03:48;;;;;;;0.10;0.10;;;;;;;11.80;74.04;101471.22;5098035;28;20031;-83
2023/11/16 08:06:15;;;;;;;0.10;0.10;;;;;;;11.83;73.74;101475.59;5099218;28;20128;-83
2023/11/16 08:08:43;;;;;;;1.20;1.10;;;;;;;11.82;74.02;101471.19;5099219;28;20028;-82
2023/11/16 08:11:11;;;;;;;0.30;0.30;;;;;;;11.79;73.71;101469.47;5095759;28;20046;-82
2023/11/16 08:13:40;;;;;;;0.20;0.20;;;;;;;11.80;73.70;101457.03;5100883;28;20052;-83
2023/11/16 08:16:09;;;;;;;0.10;0.10;;;;;;;11.78;73.48;101453.56;5096136;28;20039;-84
2023/11/16 08:18:37;;;;;;;0.20;0.20;;;;;;;11.78;73.44;101441.16;5095336;28;20028;-83
2023/11/16 08:21:06;;;;;;;0.10;0.10;;;;;;;11.79;73.62;101442.91;5093419;28;20481;-83
2023/11/16 08:23:38;;;;;;;0.20;0.20;;;;;;;11.80;73.25;101441.13;5092783;28;20051;-83
2023/11/16 08:26:06;;;;;;;0.85;0.82;;;;;;;11.77;73.91;101434.06;5101474;28;20032;-80
2023/11/16 08:28:34;;;;;;;0.90;0.57;;;;;;;11.74;73.30;101433.25;5110849;28;20008;-80
2023/11/16 08:31:01;;;;;;;0.20;0.20;;;;;;;11.76;73.98;101436.75;5100785;28;20028;-84
2023/11/16 08:33:27;;;;;;;0.45;0.45;;;;;;;11.73;73.19;101431.50;5104584;28;20043;-81
2023/11/16 08:35:53;;;;;;;0.10;0.10;;;;;;;11.77;73.29;101434.06;5095999;28;20047;-83
2023/11/16 08:38:25;;;;;;;0.20;0.20;;;;;;;11.81;73.17;101427.84;5085690;28;20031;-83
2023/11/16 08:40:52;;;;;;;1.33;1.25;;;;;;;11.84;73.07;101439.28;5083815;28;20082;-83
2023/11/16 08:43:19;;;;;;;0.90;0.90;;;;;;;11.84;73.60;101447.25;5089287;28;20027;-83
2023/11/16 08:45:45;;;;;;;0.15;0.15;;;;;;;11.80;73.37;101449.06;5087800;28;20124;-83
2023/11/16 08:48:16;;;;;;;1.17;0.90;;;;;;;11.86;73.52;101448.13;5089481;28;20024;-84
2023/11/16 08:50:43;;;;;;;0.38;0.35;;;;;;;11.85;73.55;101441.94;5084802;28;20050;-83
2023/11/16 08:53:12;;;;;;;0.85;0.73;;;;;;;11.87;73.20;101439.25;5089564;28;20107;-83
2023/11/16 08:55:39;;;;;;;0.20;0.20;;;;;;;11.88;73.53;101430.41;5086071;28;20028;-83
2023/11/16 08:58:06;;;;;;;0.25;0.25;;;;;;;11.90;73.23;101434.78;5090722;28;20016;-84
2023/11/16 09:00:35;;;;;;;0.20;0.20;;;;;;;11.88;73.78;101435.72;5092688;28;20708;-84
2023/11/16 09:03:03;;;;;;;0.22;0.22;;;;;;;11.91;73.47;101439.19;5078385;28;20495;-84
2023/11/16 09:05:32;;;;;;;0.90;0.90;;;;;;;11.89;73.07;101448.94;5091243;28;20077;-85
2023/11/16 09:08:01;;;;;;;0.10;0.10;;;;;;;11.86;73.34;101446.31;5090113;28;20028;-84
2023/11/16 09:10:28;;;;;;;0.20;0.20;;;;;;;11.86;73.04;101451.63;5092948;28;20035;-85
2023/11/16 09:12:55;;;;;;;0.10;0.10;;;;;;;11.85;73.19;101449.91;5091640;28;20047;-84
2023/11/16 09:15:22;;;;;;;0.20;0.20;;;;;;;11.88;73.05;101441.88;5086557;28;20017;-85
2023/11/16 09:17:51;;;;;;;0.20;0.20;;;;;;;11.90;73.25;101445.41;5092309;28;20107;-84
2023/11/16 09:20:19;;;;;;;0.20;0.20;;;;;;;11.88;73.33;101449.84;5084542;28;20032;-85
2023/11/16 09:22:49;;;;;;;0.10;0.10;;;;;;;11.89;72.66;101448.94;5094114;28;20051;-84
2023/11/16 09:25:19;;;;;;;0.90;0.60;;;;;;;11.87;72.87;101441.91;5091518;28;20028;-85
2023/11/16 09:27:50;;;;;;;0.10;0.10;;;;;;;11.93;72.87;101444.47;5086239;28;20017;-84
2023/11/16 09:30:17;;;;;;;0.20;0.20;;;;;;;11.95;73.25;101442.66;5083282;28;20032;-85
2023/11/16 09:32:44;;;;;;;0.20;0.20;;;;;;;11.96;72.87;101445.34;5086706;28;20028;-84
2023/11/16 09:35:14;;;;;;;2.72;0.88;;;;;;;11.96;72.60;101444.44;5097836;28;20073;-85
2023/11/16 09:37:45;;;;;;;0.40;0.40;;;;;;;11.99;72.40;101441.75;5091838;28;20020;-84
2023/11/16 09:40:13;;;;;;;0.50;0.50;;;;;;;12.01;72.93;101436.41;5084095;28;20031;-84
2023/11/16 09:42:43;;;;;;;0.20;0.20;;;;;;;12.01;73.06;101425.78;5085600;28;20032;-83
2023/11/16 09:45:10;;;;;;;0.17;0.17;;;;;;;12.03;73.15;101424.00;5081782;28;20085;-84
2023/11/16 09:47:44;;;;;;;0.10;0.10;;;;;;;12.05;72.58;101419.50;5085746;28;20037;-84
2023/11/16 09:50:13;;;;;;;0.73;0.73;;;;;;;12.05;72.88;101416.84;5090510;28;20443;-84
2023/11/16 09:52:39;;;;;;;0.13;0.13;;;;;;;12.08;72.75;101427.44;5084779;28;20028;-83
2023/11/16 09:55:09;;;;;;;0.10;0.10;;;;;;;12.09;72.62;101426.53;5090349;28;20024;-84
2023/11/16 09:57:41;;;;;;;0.20;0.20;;;;;;;12.11;72.60;101424.72;5090116;28;20020;-84
2023/11/16 10:00:15;;;;;;;0.45;0.45;;;;;;;12.10;72.30;101430.94;5091555;28;20098;-82
2023/11/16 10:02:43;;;;;;;0.22;0.22;;;;;;;12.12;72.36;101421.16;5087265;28;20115;-83
2023/11/16 10:05:34;;;;;;;0.25;0.25;;;;;;;12.19;71.91;101422.81;5079451;28;20115;-83
2023/11/16 10:08:03;;;;;;;0.10;0.10;;;;;;;12.17;72.84;101421.97;5083767;28;20025;-85
2023/11/16 10:10:29;;;;;;;0.17;0.17;;;;;;;12.07;72.39;101420.38;5096206;28;20039;-83
2023/11/16 10:12:57;;;;;;;0.45;0.45;;;;;;;12.08;72.28;101419.47;5099711;28;20091;-84
2023/11/16 10:15:24;;;;;;;0.28;0.28;;;;;;;12.08;71.78;101412.38;5101038;28;20085;-83
2023/11/16 10:17:51;;;;;;;0.20;0.20;;;;;;;12.10;72.55;101412.34;5093390;28;20580;-83
2023/11/16 10:20:18;;;;;;;0.43;0.43;;;;;;;12.08;72.50;101408.84;5099495;28;20028;-83
2023/11/16 10:22:46;;;;;;;0.20;0.20;;;;;;;12.10;72.29;101407.91;5100758;28;20028;-82
2023/11/16 10:25:14;;;;;;;0.10;0.10;;;;;;;12.12;72.14;101405.22;5097577;28;20021;-83
2023/11/16 10:27:41;;;;;;;0.60;0.55;;;;;;;12.11;72.05;101400.81;5097155;28;20479;-83
2023/11/16 10:30:12;;;;;;;0.75;0.75;;;;;;;12.13;72.44;101399.88;5094799;28;20032;-82
2023/11/16 10:32:42;;;;;;;0.15;0.15;;;;;;;12.11;72.32;101391.09;5088903;28;20081;-84
2023/11/16 10:35:13;;;;;;;0.22;0.22;;;;;;;12.17;72.15;101389.22;5097516;28;20043;-83
2023/11/16 10:37:42;;;;;;;0.20;0.20;;;;;;;12.14;72.10;101388.34;5095330;28;20032;-85
2023/11/16 10:40:11;;;;;;;0.10;0.10;;;;;;;12.16;72.48;101377.69;5097379;28;20024;-85
2023/11/16 10:42:41;;;;;;;0.30;0.30;;;;;;;12.20;72.49;101378.53;5088895;28;20025;-85
2023/11/16 10:45:12;;;;;;;0.10;0.10;;;;;;;12.23;72.33;101366.06;5098104;28;20064;-84
2023/11/16 10:47:41;;;;;;;0.10;0.10;;;;;;;12.24;72.59;101364.28;5094331;28;20024;-85
2023/11/16 10:50:10;;;;;;;0.10;0.10;;;;;;;12.26;72.83;101362.47;5096855;28;20625;-83
2023/11/16 10:52:38;;;;;;;0.10;0.10;;;;;;;12.29;72.28;101357.97;5110234;28;20012;-81
2023/11/16 10:55:16;;;;;;;0.20;0.20;;;;;;;12.29;72.98;101357.97;5101038;28;20020;-82
2023/11/16 10:57:43;;;;;;;0.20;0.20;;;;;;;12.32;72.76;101346.41;5097763;28;20016;-85
2023/11/16 11:00:16;;;;;;;0.45;0.38;;;;;;;12.38;72.57;101337.47;5100729;28;20110;-85
2023/11/16 11:02:45;;;;;;;0.47;0.47;;;;;;;12.38;72.68;101334.81;5097990;28;20024;-84
2023/11/16 11:05:15;;;;;;;0.10;0.10;;;;;;;12.37;72.53;101333.03;5085384;28;20425;-84
2023/11/16 11:10:33;;;;;;;0.30;0.30;;;;;;;12.38;72.10;101318.84;5116451;27;20373;-83
2023/11/16 11:13:05;;;;;;;0.20;0.20;;;;;;;12.42;72.64;101315.22;5107741;28;20024;-84
2023/11/16 11:15:34;;;;;;;0.38;0.38;;;;;;;12.41;72.23;101308.16;5113014;28;20039;-83
2023/11/16 11:18:04;;;;;;;0.40;0.40;;;;;;;12.45;72.66;101300.09;5106337;28;20085;-85
2023/11/16 11:23:16;;;;;;;0.10;0.10;;;;;;;12.48;72.24;101299.16;5071324;28;20398;-84
2023/11/16 11:25:42;;;;;;;0.10;0.10;;;;;;;12.51;72.17;101292.91;5077257;28;20036;-82
2023/11/16 11:28:11;;;;;;;0.90;0.90;;;;;;;12.53;72.11;101296.41;5092838;28;20088;-82
2023/11/16 11:30:54;;;;;;;0.47;0.47;;;;;;;12.60;71.97;101282.09;5077285;28;20032;-83
2023/11/16 11:33:42;;;;;;;0.17;0.17;;;;;;;12.63;71.74;101292.63;5070371;28;20259;-84
2023/11/16 11:36:11;;;;;;;0.13;0.13;;;;;;;12.55;72.39;101287.50;5084962;28;20028;-84